Time;durP1;ratioP1;P1;durP2;ratioP2;P2;SDS_P1;SDS_P2;PMS_P1;PMS_P2;Temp;Humidity;BMP_temperature;BMP_pressure;BME280_temperature;BME280_humidity;BME280_pressure;Samples;Min_cycle;Max_cycle;Signal;HPM_P1;HPM_P2
2021/12/15 00:01:12;;;;;;;90.50;39.47;;;10.90;99.90;;;;;;5092232;28;20024;-78
2021/12/15 00:03:39;;;;;;;90.80;41.42;;;10.90;99.90;;;;;;5085823;28;20686;-78
2021/12/15 00:06:12;;;;;;;97.53;40.97;;;10.90;99.90;;;;;;5084298;28;20086;-78
2021/12/15 00:08:39;;;;;;;103.63;41.35;;;10.90;99.90;;;;;;5082414;28;20032;-77
2021/12/15 00:11:06;;;;;;;110.82;43.10;;;10.90;99.90;;;;;;5081379;28;20028;-77
2021/12/15 00:13:32;;;;;;;87.85;39.95;;;10.90;99.90;;;;;;5085861;28;20064;-77
2021/12/15 00:15:58;;;;;;;96.75;40.58;;;10.90;99.90;;;;;;5082842;28;20016;-77
2021/12/15 00:18:24;;;;;;;95.68;41.28;;;10.90;99.90;;;;;;5078962;28;20029;-77
2021/12/15 00:20:50;;;;;;;102.88;42.13;;;10.90;99.90;;;;;;5094144;28;20425;-77
2021/12/15 00:23:16;;;;;;;109.80;43.75;;;11.00;99.90;;;;;;5081911;28;20051;-76
2021/12/15 00:25:43;;;;;;;107.95;40.85;;;10.90;99.90;;;;;;5085984;28;20066;-76
2021/12/15 00:28:09;;;;;;;109.10;43.10;;;10.90;99.90;;;;;;5082751;28;20054;-77
2021/12/15 00:30:36;;;;;;;112.95;45.38;;;10.90;99.90;;;;;;5086205;28;20024;-77
2021/12/15 00:33:02;;;;;;;112.00;43.97;;;10.90;99.90;;;;;;5086402;28;20032;-77
2021/12/15 00:35:28;;;;;;;107.22;42.55;;;10.90;99.90;;;;;;5083707;28;20077;-76
2021/12/15 00:37:54;;;;;;;101.82;40.75;;;10.90;99.90;;;;;;5084979;28;20096;-77
2021/12/15 00:40:21;;;;;;;100.88;42.10;;;11.00;99.90;;;;;;5085059;28;20033;-77
2021/12/15 00:42:47;;;;;;;98.95;41.70;;;10.90;99.90;;;;;;5089448;28;20025;-77
2021/12/15 00:45:13;;;;;;;98.40;41.40;;;10.90;99.90;;;;;;5080883;28;20025;-78
2021/12/15 00:47:39;;;;;;;113.18;42.97;;;10.90;99.90;;;;;;5083039;28;20016;-78
2021/12/15 00:50:07;;;;;;;124.57;45.30;;;11.00;99.90;;;;;;5079639;28;20093;-79
2021/12/15 00:52:35;;;;;;;112.60;41.97;;;11.00;99.90;;;;;;5084533;28;20052;-79
2021/12/15 00:55:02;;;;;;;103.20;40.55;;;11.00;99.90;;;;;;5089008;28;20027;-79
2021/12/15 00:57:28;;;;;;;114.70;43.35;;;11.00;99.90;;;;;;5081140;28;20020;-79
2021/12/15 00:59:54;;;;;;;114.53;41.63;;;11.00;99.90;;;;;;5085077;28;20035;-79
2021/12/15 01:02:19;;;;;;;98.88;40.28;;;11.00;99.90;;;;;;5081081;28;20032;-79
2021/12/15 01:04:45;;;;;;;107.00;41.42;;;11.00;99.90;;;;;;5086144;28;20040;-78
2021/12/15 01:07:12;;;;;;;110.47;41.50;;;11.00;99.90;;;;;;5087855;28;20047;-78
2021/12/15 01:09:47;;;;;;;116.60;42.58;;;10.90;99.90;;;;;;5085431;28;20032;-78
2021/12/15 01:12:36;;;;;;;124.47;45.42;;;10.90;99.90;;;;;;5083881;28;20034;-78
2021/12/15 01:20:41;;;;;;;110.45;40.75;;;10.90;99.90;;;;;;5084465;28;20039;-77
2021/12/15 01:23:11;;;;;;;115.10;41.95;;;10.90;99.90;;;;;;5085147;28;20032;-77
2021/12/15 01:25:41;;;;;;;111.47;40.13;;;10.90;99.90;;;;;;5090508;28;20043;-77
2021/12/15 01:28:08;;;;;;;117.30;42.88;;;10.80;99.90;;;;;;5083353;28;20040;-76
2021/12/15 01:30:39;;;;;;;100.65;39.30;;;10.90;99.90;;;;;;5089392;28;20520;-77
2021/12/15 01:33:05;;;;;;;106.53;41.47;;;10.90;99.90;;;;;;5092803;28;20036;-77
2021/12/15 01:35:33;;;;;;;104.72;40.13;;;10.90;99.90;;;;;;5087984;28;20145;-77
2021/12/15 01:37:59;;;;;;;128.00;43.78;;;10.80;99.90;;;;;;5086350;28;20051;-77
2021/12/15 01:40:39;;;;;;;117.63;40.92;;;10.80;99.90;;;;;;5088360;28;20365;-78
2021/12/15 01:43:18;;;;;;;104.45;41.17;;;10.80;99.90;;;;;;5090353;28;20409;-77
2021/12/15 01:48:38;;;;;;;101.90;39.17;;;10.80;99.90;;;;;;5087128;28;20043;-77
2021/12/15 01:51:07;;;;;;;97.10;37.00;;;10.80;99.90;;;;;;5086097;28;20066;-76
2021/12/15 01:53:33;;;;;;;103.05;39.95;;;10.90;99.90;;;;;;5089985;28;20103;-76
2021/12/15 01:55:59;;;;;;;100.68;40.45;;;10.80;99.90;;;;;;5096450;28;20116;-76
2021/12/15 01:58:24;;;;;;;105.30;40.85;;;10.80;99.90;;;;;;5088744;27;20028;-76
2021/12/15 02:00:58;;;;;;;101.38;38.33;;;10.80;99.90;;;;;;5086246;28;20028;-76
2021/12/15 02:03:24;;;;;;;94.13;36.17;;;10.90;99.90;;;;;;5093976;28;20032;-76
2021/12/15 02:05:50;;;;;;;93.70;36.55;;;10.90;99.90;;;;;;5090021;28;20028;-77
2021/12/15 02:08:16;;;;;;;95.40;37.50;;;10.90;99.90;;;;;;5087330;28;20020;-76
2021/12/15 02:10:44;;;;;;;96.72;37.20;;;10.80;99.90;;;;;;5090754;28;20042;-77
2021/12/15 02:13:13;;;;;;;99.72;37.78;;;10.90;99.90;;;;;;5082744;28;20017;-77
2021/12/15 02:15:52;;;;;;;95.22;36.50;;;10.90;99.90;;;;;;5089104;28;20056;-77
2021/12/15 02:18:22;;;;;;;100.10;38.65;;;10.80;99.90;;;;;;5087112;28;20095;-77
2021/12/15 02:20:57;;;;;;;96.18;35.38;;;10.70;99.90;;;;;;5083261;28;20047;-77
2021/12/15 02:23:32;;;;;;;95.05;35.97;;;10.80;99.90;;;;;;5082775;28;20030;-77
2021/12/15 02:25:59;;;;;;;91.60;35.53;;;10.80;99.90;;;;;;5087451;28;20393;-77
2021/12/15 02:28:25;;;;;;;103.55;37.55;;;10.70;99.90;;;;;;5082122;28;20024;-77
2021/12/15 02:31:02;;;;;;;99.72;36.33;;;10.80;99.90;;;;;;5083656;28;20024;-77
2021/12/15 02:33:56;;;;;;;89.85;35.83;;;10.70;99.90;;;;;;5087880;28;20042;-77
2021/12/15 02:39:07;;;;;;;97.78;35.78;;;10.80;99.90;;;;;;5079681;28;20039;-77
2021/12/15 02:41:33;;;;;;;92.10;34.97;;;10.90;99.90;;;;;;5084088;28;20048;-77
2021/12/15 02:44:03;;;;;;;92.20;33.97;;;10.90;99.90;;;;;;5083293;28;20032;-77
2021/12/15 02:46:31;;;;;;;79.47;32.88;;;10.90;99.90;;;;;;5084847;28;20055;-77
2021/12/15 02:49:00;;;;;;;87.72;34.05;;;10.90;99.90;;;;;;5084518;28;20112;-77
2021/12/15 02:51:27;;;;;;;91.03;34.50;;;10.90;99.90;;;;;;5085912;28;20020;-77
2021/12/15 02:53:57;;;;;;;83.18;32.53;;;10.90;99.90;;;;;;5084921;28;20167;-77
2021/12/15 02:56:22;;;;;;;81.43;32.53;;;10.90;99.90;;;;;;5086837;28;20036;-76
2021/12/15 02:58:54;;;;;;;82.55;32.97;;;10.90;99.90;;;;;;5083186;28;20119;-77
2021/12/15 03:01:31;;;;;;;73.28;30.02;;;10.80;99.90;;;;;;5087119;28;20031;-77
2021/12/15 03:06:46;;;;;;;86.03;32.13;;;10.80;99.90;;;;;;5086921;28;20029;-77
2021/12/15 03:17:19;;;;;;;78.20;31.25;;;11.00;99.90;;;;;;5060908;28;20028;-77
2021/12/15 03:19:45;;;;;;;82.45;33.85;;;11.00;99.90;;;;;;5083243;28;20027;-77
2021/12/15 03:22:11;;;;;;;82.90;34.42;;;10.90;99.90;;;;;;5087673;28;20036;-76
2021/12/15 03:24:36;;;;;;;93.10;35.15;;;10.90;99.90;;;;;;5084628;28;20041;-77
2021/12/15 03:27:08;;;;;;;87.90;34.60;;;10.90;99.90;;;;;;5080060;28;20058;-77
2021/12/15 03:37:26;;;;;;;80.50;33.08;;;10.90;99.90;;;;;;5084461;28;20472;-77
2021/12/15 03:40:03;;;;;;;80.15;33.13;;;10.80;99.90;;;;;;5082591;28;20016;-77
2021/12/15 03:42:35;;;;;;;79.45;33.28;;;10.90;99.90;;;;;;5084433;28;20448;-77
2021/12/15 03:45:05;;;;;;;76.78;31.75;;;10.90;99.90;;;;;;5081423;28;20028;-77
2021/12/15 03:47:34;;;;;;;79.68;30.33;;;10.90;99.90;;;;;;5087873;28;20028;-77
2021/12/15 03:50:03;;;;;;;73.25;30.63;;;10.90;99.90;;;;;;5081100;28;20060;-77
2021/12/15 03:52:28;;;;;;;74.65;29.75;;;10.90;99.90;;;;;;5087311;28;20024;-77
2021/12/15 03:54:54;;;;;;;71.93;29.92;;;10.80;99.90;;;;;;5081470;28;20082;-77
2021/12/15 03:57:21;;;;;;;70.72;29.63;;;10.90;99.90;;;;;;5083401;28;20032;-76
2021/12/15 03:59:47;;;;;;;71.32;29.10;;;10.90;99.90;;;;;;5080602;28;20393;-77
2021/12/15 04:02:16;;;;;;;75.55;29.85;;;10.90;99.90;;;;;;5083312;28;20555;-77
2021/12/15 04:04:43;;;;;;;62.80;27.13;;;10.80;99.90;;;;;;5086693;28;20108;-77
2021/12/15 04:07:10;;;;;;;71.93;29.10;;;10.80;99.90;;;;;;5082693;28;20433;-77
2021/12/15 04:09:36;;;;;;;73.28;29.65;;;10.80;99.90;;;;;;5085264;28;20016;-77
2021/12/15 04:12:02;;;;;;;68.93;29.48;;;10.80;99.90;;;;;;5084341;28;20031;-77
2021/12/15 04:14:34;;;;;;;71.30;31.80;;;10.80;99.90;;;;;;5086260;28;20460;-77
2021/12/15 04:17:05;;;;;;;73.70;30.25;;;10.70;99.90;;;;;;5084318;28;20032;-76
2021/12/15 04:19:33;;;;;;;69.60;29.85;;;10.80;99.90;;;;;;5086089;28;20515;-77
2021/12/15 04:21:59;;;;;;;77.13;30.48;;;10.80;99.90;;;;;;5078027;28;20492;-77
2021/12/15 04:24:27;;;;;;;76.05;30.67;;;10.80;99.90;;;;;;5082320;28;20050;-77
2021/12/15 04:26:56;;;;;;;73.43;29.40;;;10.90;99.90;;;;;;5087296;28;20016;-76
2021/12/15 04:29:22;;;;;;;77.10;31.73;;;10.80;99.90;;;;;;5076234;28;20031;-77
2021/12/15 04:31:56;;;;;;;68.57;28.70;;;10.80;99.90;;;;;;5080051;28;20353;-78
2021/12/15 04:34:22;;;;;;;73.40;30.63;;;10.70;99.90;;;;;;5086232;28;20029;-77
2021/12/15 04:36:49;;;;;;;75.07;32.13;;;10.80;99.90;;;;;;5080436;28;20021;-77
2021/12/15 04:39:18;;;;;;;68.05;30.33;;;10.80;99.90;;;;;;5085991;28;20052;-76
2021/12/15 04:41:48;;;;;;;65.80;29.85;;;10.80;99.90;;;;;;5083957;28;20016;-77
2021/12/15 04:44:15;;;;;;;68.00;30.65;;;10.80;99.90;;;;;;5084993;28;20068;-76
2021/12/15 04:46:45;;;;;;;63.63;28.92;;;10.80;99.90;;;;;;5083620;28;20470;-77
2021/12/15 04:49:13;;;;;;;59.63;27.13;;;10.90;99.90;;;;;;5085227;28;20557;-76
2021/12/15 04:51:39;;;;;;;61.70;27.42;;;10.80;99.90;;;;;;5080347;28;20050;-76
2021/12/15 04:54:05;;;;;;;64.57;27.75;;;10.80;99.90;;;;;;5085067;28;20491;-76
2021/12/15 04:56:31;;;;;;;65.35;27.63;;;10.80;99.90;;;;;;5079560;28;20254;-77
2021/12/15 04:58:57;;;;;;;58.53;26.35;;;10.90;99.90;;;;;;5082952;28;20464;-77
2021/12/15 05:01:25;;;;;;;60.22;25.80;;;10.80;99.90;;;;;;5081448;28;20040;-76
2021/12/15 05:03:51;;;;;;;57.45;26.55;;;10.80;99.90;;;;;;5084571;28;20044;-77
2021/12/15 05:06:17;;;;;;;53.55;24.10;;;10.90;99.90;;;;;;5081323;28;20035;-76
2021/12/15 05:08:43;;;;;;;50.75;23.95;;;10.90;99.90;;;;;;5085333;28;20028;-76
2021/12/15 05:11:11;;;;;;;53.65;24.60;;;10.90;99.90;;;;;;5077715;28;20015;-77
2021/12/15 05:13:38;;;;;;;52.45;24.15;;;10.90;99.90;;;;;;5085352;28;20042;-77
2021/12/15 05:16:05;;;;;;;62.20;24.98;;;10.90;99.90;;;;;;5076116;28;20391;-76
2021/12/15 05:18:30;;;;;;;54.03;23.83;;;10.90;99.90;;;;;;5085743;28;20023;-76
2021/12/15 05:20:58;;;;;;;63.35;25.80;;;10.90;99.90;;;;;;5080076;28;20021;-76
2021/12/15 05:23:29;;;;;;;57.30;25.40;;;10.90;99.90;;;;;;5081982;28;20027;-77
2021/12/15 05:25:55;;;;;;;57.00;26.42;;;10.90;99.90;;;;;;5081013;28;20032;-76
2021/12/15 05:28:21;;;;;;;58.75;26.17;;;10.80;99.90;;;;;;5087374;28;20029;-77
2021/12/15 05:30:47;;;;;;;62.15;26.98;;;10.90;99.90;;;;;;5085977;28;20116;-77
2021/12/15 05:33:12;;;;;;;62.42;26.10;;;10.90;99.90;;;;;;5085178;28;20028;-77
2021/12/15 05:35:38;;;;;;;64.10;26.15;;;10.80;99.90;;;;;;5081239;28;20024;-76
2021/12/15 05:38:05;;;;;;;65.97;26.55;;;10.80;99.90;;;;;;5080001;28;20070;-76
2021/12/15 05:40:32;;;;;;;65.00;27.58;;;10.80;99.90;;;;;;5084529;28;20219;-78
2021/12/15 05:42:58;;;;;;;74.47;28.75;;;10.80;99.90;;;;;;5080596;28;20032;-77
2021/12/15 05:45:27;;;;;;;65.32;27.67;;;10.80;99.90;;;;;;5082477;28;20385;-76
2021/12/15 05:47:54;;;;;;;71.40;28.73;;;10.80;99.90;;;;;;5084232;28;20078;-77
2021/12/15 05:50:20;;;;;;;65.47;27.90;;;10.80;99.90;;;;;;5080769;28;20028;-77
2021/12/15 05:52:46;;;;;;;69.18;29.17;;;10.80;99.90;;;;;;5088224;28;20425;-77
2021/12/15 05:55:13;;;;;;;70.13;28.33;;;10.80;99.90;;;;;;5087696;28;20032;-77
2021/12/15 05:57:39;;;;;;;76.95;28.98;;;10.80;99.90;;;;;;5079629;28;20027;-77
2021/12/15 06:00:10;;;;;;;72.78;28.85;;;10.90;99.90;;;;;;5084921;28;20035;-77
2021/12/15 06:02:36;;;;;;;78.72;29.05;;;10.90;99.90;;;;;;5077012;28;20021;-77
2021/12/15 06:05:02;;;;;;;69.30;27.38;;;10.80;99.90;;;;;;5081584;28;20096;-77
2021/12/15 06:07:27;;;;;;;67.00;27.95;;;10.80;99.90;;;;;;5085672;28;20162;-77
2021/12/15 06:09:53;;;;;;;65.85;26.88;;;10.80;99.90;;;;;;5083263;28;20039;-77
2021/12/15 06:12:18;;;;;;;65.90;28.13;;;10.80;99.90;;;;;;5078976;28;20054;-77
2021/12/15 06:14:44;;;;;;;66.00;28.75;;;10.80;99.90;;;;;;5081302;28;20043;-77
2021/12/15 06:17:11;;;;;;;79.60;31.25;;;10.80;99.90;;;;;;5084425;28;20032;-77
2021/12/15 06:19:37;;;;;;;66.97;28.17;;;10.80;99.90;;;;;;5086540;28;20028;-77
2021/12/15 06:22:05;;;;;;;67.10;28.65;;;10.80;99.90;;;;;;5089656;28;20032;-77
2021/12/15 06:24:31;;;;;;;67.15;27.13;;;10.90;99.90;;;;;;5085263;28;20048;-77
2021/12/15 06:27:03;;;;;;;61.05;27.25;;;10.80;99.90;;;;;;5087540;28;20032;-77
2021/12/15 06:29:29;;;;;;;64.43;28.13;;;10.80;99.90;;;;;;5084521;28;20016;-77
2021/12/15 06:31:55;;;;;;;58.17;25.75;;;10.90;99.90;;;;;;5083636;28;20077;-77
2021/12/15 06:34:21;;;;;;;55.25;24.60;;;10.90;99.90;;;;;;5083887;28;20032;-77
2021/12/15 06:36:47;;;;;;;51.20;23.83;;;10.90;99.90;;;;;;5088611;28;20022;-77
2021/12/15 06:39:13;;;;;;;65.15;26.98;;;10.80;99.90;;;;;;5089566;28;20115;-77
2021/12/15 06:41:39;;;;;;;56.83;26.17;;;10.80;99.90;;;;;;5081198;28;20024;-77
2021/12/15 06:44:05;;;;;;;60.15;26.13;;;10.80;99.90;;;;;;5093425;28;20035;-77
2021/12/15 06:59:53;;;;;;;52.15;23.73;;;10.90;99.90;;;;;;5088321;28;20060;-77
2021/12/15 07:02:19;;;;;;;60.08;26.83;;;10.90;99.90;;;;;;5082002;28;20545;-77
2021/12/15 07:04:44;;;;;;;56.70;26.10;;;10.90;99.90;;;;;;5086135;28;20090;-77
2021/12/15 07:07:11;;;;;;;65.75;27.67;;;10.80;99.90;;;;;;5088348;28;20379;-77
2021/12/15 07:09:37;;;;;;;62.78;27.08;;;10.80;99.90;;;;;;5082219;28;20024;-77
2021/12/15 07:12:04;;;;;;;58.47;26.58;;;10.80;99.90;;;;;;5081957;28;20098;-77
2021/12/15 07:14:30;;;;;;;64.88;28.02;;;10.80;99.90;;;;;;5082289;28;20016;-77
2021/12/15 07:16:58;;;;;;;69.00;30.45;;;10.80;99.90;;;;;;5088982;28;20020;-76
2021/12/15 07:22:08;;;;;;;62.83;27.55;;;10.80;99.90;;;;;;5085818;28;20447;-77
2021/12/15 07:24:35;;;;;;;72.85;29.55;;;10.90;99.90;;;;;;5081967;28;20039;-77
2021/12/15 07:27:02;;;;;;;67.93;30.95;;;10.80;99.90;;;;;;5080607;28;20029;-76
2021/12/15 07:29:28;;;;;;;71.97;29.65;;;10.90;99.90;;;;;;5080403;28;20036;-77
2021/12/15 07:31:54;;;;;;;61.53;27.05;;;11.00;99.90;;;;;;5083930;28;20028;-77
2021/12/15 07:34:20;;;;;;;63.00;28.15;;;11.00;99.90;;;;;;5087856;28;20035;-77
2021/12/15 07:36:45;;;;;;;72.25;30.42;;;10.90;99.90;;;;;;5087029;28;20403;-78
2021/12/15 07:39:12;;;;;;;84.43;31.42;;;11.00;99.90;;;;;;5084447;28;20280;-78
2021/12/15 07:41:49;;;;;;;74.15;31.95;;;11.00;99.90;;;;;;5083114;28;20029;-77
2021/12/15 07:44:16;;;;;;;66.55;27.63;;;10.90;99.90;;;;;;5095772;28;20563;-78
2021/12/15 07:46:44;;;;;;;75.78;31.30;;;10.90;99.90;;;;;;5085528;28;20569;-78
2021/12/15 07:49:10;;;;;;;79.20;32.25;;;10.90;99.90;;;;;;5086661;28;20032;-78
2021/12/15 07:51:36;;;;;;;75.63;30.17;;;10.90;99.90;;;;;;5076369;28;20499;-76
2021/12/15 07:54:02;;;;;;;81.45;32.63;;;10.90;99.90;;;;;;5073380;28;20035;-79
2021/12/15 07:56:28;;;;;;;75.95;30.88;;;10.90;99.90;;;;;;5077774;28;20024;-78
2021/12/15 07:58:54;;;;;;;76.28;31.95;;;10.90;99.90;;;;;;5082083;28;20029;-77
2021/12/15 08:01:20;;;;;;;78.47;33.78;;;10.90;99.90;;;;;;5082778;28;20103;-77
2021/12/15 08:03:51;;;;;;;83.35;32.47;;;11.00;99.90;;;;;;5077891;28;20601;-76
2021/12/15 08:06:17;;;;;;;72.30;31.42;;;10.90;99.90;;;;;;5083195;28;20368;-77
2021/12/15 08:08:43;;;;;;;74.03;29.25;;;11.00;99.90;;;;;;5085953;28;20558;-76
2021/12/15 08:11:09;;;;;;;78.38;30.10;;;11.00;99.90;;;;;;5082511;28;20028;-77
2021/12/15 08:13:36;;;;;;;88.63;32.50;;;11.00;99.90;;;;;;5083498;28;20024;-77
2021/12/15 08:16:03;;;;;;;76.78;31.70;;;11.00;99.90;;;;;;5082751;28;20020;-77
2021/12/15 08:18:28;;;;;;;86.22;32.72;;;11.00;99.90;;;;;;5084647;28;20028;-77
2021/12/15 08:20:55;;;;;;;83.72;31.50;;;11.00;99.90;;;;;;5085287;28;20027;-77
2021/12/15 08:23:22;;;;;;;83.07;32.92;;;11.00;99.90;;;;;;5085897;28;20036;-77
2021/12/15 08:25:48;;;;;;;79.65;31.38;;;11.00;99.90;;;;;;5086627;28;20028;-77
2021/12/15 08:28:14;;;;;;;74.28;30.30;;;11.00;99.90;;;;;;5084921;28;20517;-77
2021/12/15 08:30:42;;;;;;;82.90;33.53;;;11.00;99.90;;;;;;5080824;28;20024;-77
2021/12/15 08:33:12;;;;;;;75.60;31.38;;;11.00;99.90;;;;;;5080425;28;20025;-76
2021/12/15 08:35:44;;;;;;;89.57;33.00;;;11.00;99.90;;;;;;5080218;28;20036;-76
2021/12/15 08:38:12;;;;;;;76.70;31.33;;;10.90;99.90;;;;;;5084125;28;20031;-76
2021/12/15 08:40:38;;;;;;;76.40;31.08;;;10.90;99.90;;;;;;5084730;28;20016;-78
2021/12/15 08:43:09;;;;;;;87.80;33.42;;;11.00;99.90;;;;;;5081865;28;20102;-76
2021/12/15 08:45:38;;;;;;;87.63;32.97;;;10.90;99.90;;;;;;5080992;28;20492;-77
2021/12/15 08:48:07;;;;;;;84.47;33.35;;;11.00;99.90;;;;;;5085612;28;20078;-77
2021/12/15 08:50:36;;;;;;;84.57;32.30;;;11.10;99.90;;;;;;5083569;28;20028;-76
2021/12/15 08:53:04;;;;;;;74.22;31.85;;;11.10;99.90;;;;;;5084450;28;20020;-77
2021/12/15 08:55:29;;;;;;;88.05;33.67;;;11.10;99.90;;;;;;5081793;28;20024;-76
2021/12/15 08:57:58;;;;;;;81.25;32.00;;;11.10;99.90;;;;;;5076379;28;20460;-76
2021/12/15 09:00:26;;;;;;;81.38;34.63;;;11.10;99.90;;;;;;5080683;28;20032;-76
2021/12/15 09:02:54;;;;;;;87.38;33.15;;;11.10;99.90;;;;;;5084248;28;20042;-76
2021/12/15 09:05:22;;;;;;;84.53;35.90;;;11.00;99.90;;;;;;5080009;28;20078;-77
2021/12/15 09:07:54;;;;;;;84.00;33.75;;;11.10;99.90;;;;;;5082817;28;20475;-77
2021/12/15 09:10:22;;;;;;;80.90;32.65;;;11.00;99.90;;;;;;5084245;28;20028;-76
2021/12/15 09:12:48;;;;;;;75.75;30.55;;;11.00;99.90;;;;;;5082282;28;20392;-77
2021/12/15 09:15:14;;;;;;;82.13;34.00;;;11.00;99.90;;;;;;5078339;28;20024;-76
2021/12/15 09:17:40;;;;;;;85.82;33.25;;;11.00;99.90;;;;;;5078792;28;20032;-77
2021/12/15 09:20:12;;;;;;;86.25;35.42;;;11.00;99.90;;;;;;5083848;28;20537;-76
2021/12/15 09:22:39;;;;;;;85.63;33.88;;;11.10;99.90;;;;;;5081922;28;20473;-77
2021/12/15 09:25:09;;;;;;;77.72;32.38;;;11.10;99.90;;;;;;5078147;28;20483;-77
2021/12/15 09:27:36;;;;;;;80.05;32.80;;;11.20;99.90;;;;;;5080046;28;20093;-77
2021/12/15 09:30:06;;;;;;;74.97;32.70;;;11.20;99.90;;;;;;5076416;28;20039;-77
2021/12/15 09:32:31;;;;;;;79.75;33.55;;;11.10;99.90;;;;;;5084114;28;20414;-77
2021/12/15 09:34:57;;;;;;;80.63;33.03;;;11.10;99.90;;;;;;5082377;28;20107;-77
2021/12/15 09:37:23;;;;;;;83.05;34.10;;;11.20;99.90;;;;;;5085052;28;20020;-78
2021/12/15 09:39:49;;;;;;;76.38;31.90;;;11.10;99.90;;;;;;5080965;28;20583;-78
2021/12/15 09:42:20;;;;;;;84.80;34.75;;;11.20;99.90;;;;;;5078877;28;20028;-78
2021/12/15 09:44:49;;;;;;;93.25;34.15;;;11.20;99.90;;;;;;5075723;28;20044;-78
2021/12/15 09:47:42;;;;;;;74.50;32.05;;;11.20;99.90;;;;;;5080425;28;20017;-79
2021/12/15 10:04:09;;;;;;;76.05;31.90;;;11.30;99.90;;;;;;5086710;28;20054;-79
2021/12/15 10:12:24;;;;;;;73.90;32.13;;;11.20;99.90;;;;;;5060934;28;20059;-79
2021/12/15 10:17:52;;;;;;;70.10;30.85;;;11.30;99.90;;;;;;5085911;28;20130;-80
2021/12/15 10:20:23;;;;;;;85.43;40.95;;;11.20;99.90;;;;;;5085502;28;20103;-79
2021/12/15 10:22:56;;;;;;;78.80;33.33;;;11.20;99.90;;;;;;5080081;28;20036;-79
2021/12/15 10:25:29;;;;;;;68.95;32.47;;;11.30;99.90;;;;;;5092669;28;20146;-79
2021/12/15 10:28:05;;;;;;;75.72;33.42;;;11.30;99.90;;;;;;5083144;28;20104;-78
2021/12/15 10:30:38;;;;;;;71.85;31.98;;;11.30;99.90;;;;;;5087772;28;20029;-78
2021/12/15 10:33:12;;;;;;;85.28;36.03;;;11.40;99.90;;;;;;5083904;28;20104;-78
2021/12/15 10:35:42;;;;;;;75.90;34.17;;;11.40;99.90;;;;;;5088263;28;20104;-80
2021/12/15 10:38:32;;;;;;;76.28;33.80;;;11.30;99.90;;;;;;5084119;28;20395;-78
2021/12/15 10:41:03;;;;;;;76.60;36.35;;;11.40;99.90;;;;;;5082271;28;20416;-78
2021/12/15 10:43:34;;;;;;;77.60;34.15;;;11.40;99.90;;;;;;5086879;28;20036;-78
2021/12/15 10:46:05;;;;;;;73.47;33.88;;;11.40;99.90;;;;;;5082731;28;20069;-78
2021/12/15 10:48:36;;;;;;;68.30;29.63;;;11.40;99.90;;;;;;5088140;28;20476;-78
2021/12/15 10:51:26;;;;;;;71.85;33.55;;;11.40;99.90;;;;;;5089130;28;20073;-78
2021/12/15 10:53:55;;;;;;;69.57;32.38;;;11.40;99.90;;;;;;5083617;28;20029;-75
2021/12/15 10:56:24;;;;;;;76.32;33.72;;;11.50;99.90;;;;;;5087443;28;20028;-79
2021/12/15 10:58:54;;;;;;;80.60;33.50;;;11.50;99.90;;;;;;5083815;28;20035;-78
2021/12/15 11:01:39;;;;;;;75.47;35.53;;;11.60;99.90;;;;;;5084045;28;20028;-78
2021/12/15 11:04:27;;;;;;;75.28;34.65;;;11.60;99.90;;;;;;5080722;28;20045;-78
2021/12/15 11:07:13;;;;;;;70.15;32.83;;;11.50;99.90;;;;;;5084248;28;20469;-77
2021/12/15 11:09:42;;;;;;;78.82;34.85;;;11.50;99.90;;;;;;5084541;28;20111;-77
2021/12/15 11:12:15;;;;;;;83.10;39.45;;;11.50;99.90;;;;;;5084544;28;20020;-78
2021/12/15 11:14:43;;;;;;;79.93;37.50;;;11.60;99.90;;;;;;5083045;28;20112;-77
2021/12/15 11:17:48;;;;;;;69.82;33.10;;;11.50;99.90;;;;;;5085130;28;20428;-78
2021/12/15 11:20:16;;;;;;;72.97;33.83;;;11.60;99.90;;;;;;5075264;28;20043;-78
2021/12/15 11:23:06;;;;;;;77.78;35.63;;;11.60;99.90;;;;;;5082662;28;20028;-78
2021/12/15 11:25:40;;;;;;;75.00;35.50;;;11.60;99.90;;;;;;5079698;28;20040;-78
2021/12/15 11:28:08;;;;;;;71.25;33.70;;;11.60;99.90;;;;;;5081756;28;20139;-78
2021/12/15 11:30:34;;;;;;;64.80;32.33;;;11.60;99.90;;;;;;5076332;28;20461;-78
2021/12/15 11:33:04;;;;;;;72.75;34.60;;;11.70;99.90;;;;;;5085301;28;20044;-76
2021/12/15 11:35:38;;;;;;;68.38;33.20;;;11.70;99.90;;;;;;5084277;28;20045;-78
2021/12/15 11:38:13;;;;;;;71.43;34.15;;;11.70;99.90;;;;;;5082099;28;20054;-80
2021/12/15 11:40:46;;;;;;;70.38;34.20;;;11.70;99.90;;;;;;5089139;28;20036;-75
2021/12/15 11:43:32;;;;;;;71.15;33.67;;;11.70;99.90;;;;;;5080774;28;20062;-77
2021/12/15 11:45:59;;;;;;;68.13;33.53;;;11.70;99.90;;;;;;5080772;28;20039;-78
2021/12/15 11:48:29;;;;;;;60.67;31.00;;;11.80;99.90;;;;;;5081831;28;20035;-77
2021/12/15 11:50:59;;;;;;;67.72;34.33;;;11.80;99.90;;;;;;5081116;28;20455;-77
2021/12/15 11:53:31;;;;;;;62.30;33.47;;;11.90;99.90;;;;;;5084677;28;20042;-77
2021/12/15 11:56:22;;;;;;;60.38;31.35;;;11.90;99.90;;;;;;5077254;28;20544;-77
2021/12/15 11:58:51;;;;;;;62.97;33.20;;;11.90;99.90;;;;;;5077483;28;20032;-78
2021/12/15 12:01:47;;;;;;;61.75;31.35;;;11.90;99.90;;;;;;5084427;28;20362;-79
2021/12/15 12:04:27;;;;;;;60.75;31.17;;;12.00;99.90;;;;;;5081161;28;20044;-76
2021/12/15 12:07:08;;;;;;;64.30;34.22;;;12.00;99.90;;;;;;5084731;28;20032;-77
2021/12/15 12:09:37;;;;;;;58.67;32.67;;;12.10;99.90;;;;;;5085437;28;20024;-79
2021/12/15 12:12:05;;;;;;;58.92;31.83;;;12.00;99.90;;;;;;5080541;28;20062;-80
2021/12/15 12:14:49;;;;;;;56.47;30.25;;;11.90;99.90;;;;;;5080452;28;20013;-78
2021/12/15 12:17:21;;;;;;;56.55;31.75;;;12.00;99.90;;;;;;5081156;28;20039;-78
2021/12/15 12:19:57;;;;;;;55.85;30.98;;;11.90;99.90;;;;;;5101376;27;20058;-78
2021/12/15 12:22:27;;;;;;;54.95;30.30;;;12.00;99.90;;;;;;5077513;28;20023;-78
2021/12/15 12:24:56;;;;;;;47.67;30.00;;;12.00;99.90;;;;;;5084941;28;20048;-77
2021/12/15 12:27:24;;;;;;;53.40;29.27;;;12.00;99.90;;;;;;5084317;28;20131;-79
2021/12/15 12:29:55;;;;;;;54.13;29.55;;;12.00;99.90;;;;;;5082177;28;20102;-79
2021/12/15 12:32:22;;;;;;;54.45;29.50;;;12.00;99.90;;;;;;5085432;28;20027;-81
2021/12/15 12:34:50;;;;;;;52.17;30.38;;;12.00;99.90;;;;;;5081449;28;20024;-80
2021/12/15 12:37:16;;;;;;;50.65;28.98;;;12.00;99.90;;;;;;5080875;28;20024;-80
2021/12/15 12:39:44;;;;;;;53.00;28.80;;;12.10;99.90;;;;;;5081050;28;20036;-80
2021/12/15 12:42:25;;;;;;;56.05;28.95;;;12.10;99.90;;;;;;5089543;28;20367;-79
2021/12/15 12:44:53;;;;;;;48.65;26.65;;;12.10;99.90;;;;;;5078361;28;20072;-79
2021/12/15 12:47:32;;;;;;;48.40;29.02;;;12.10;99.90;;;;;;5080171;28;20031;-80
2021/12/15 12:50:15;;;;;;;51.63;28.90;;;12.10;99.90;;;;;;5082865;28;20249;-77
2021/12/15 13:01:12;;;;;;;51.55;28.30;;;12.10;99.90;;;;;;5078541;28;20037;-77
2021/12/15 13:03:47;;;;;;;49.67;28.80;;;12.20;99.90;;;;;;5080174;28;20030;-80
2021/12/15 13:06:41;;;;;;;54.03;29.35;;;12.10;99.90;;;;;;5083003;28;20502;-80
2021/12/15 13:09:16;;;;;;;47.28;29.15;;;12.20;99.90;;;;;;5083572;28;20085;-80
2021/12/15 13:11:43;;;;;;;46.90;27.27;;;12.20;99.90;;;;;;5084351;28;20101;-79
2021/12/15 13:14:32;;;;;;;50.05;29.15;;;12.20;99.90;;;;;;5078013;28;20046;-79
2021/12/15 13:17:02;;;;;;;49.42;26.67;;;12.20;99.90;;;;;;5084877;28;20024;-80
2021/12/15 13:19:50;;;;;;;49.28;29.25;;;12.20;99.90;;;;;;5081682;28;20020;-77
2021/12/15 13:31:01;;;;;;;51.20;29.13;;;12.20;99.90;;;;;;5063970;28;20381;-77
2021/12/15 13:33:37;;;;;;;44.45;28.77;;;12.10;99.90;;;;;;5077852;28;20040;-79
2021/12/15 13:36:04;;;;;;;46.17;28.40;;;12.20;99.90;;;;;;5082239;28;20028;-80
2021/12/15 13:38:33;;;;;;;48.75;28.38;;;12.20;99.90;;;;;;5085198;28;20112;-78
2021/12/15 13:41:21;;;;;;;43.20;27.13;;;12.10;99.90;;;;;;5080212;28;20031;-80
2021/12/15 13:43:55;;;;;;;47.13;28.08;;;12.10;99.90;;;;;;5079181;28;20031;-79
2021/12/15 13:46:32;;;;;;;44.28;27.95;;;12.10;99.90;;;;;;5083363;28;20138;-80
2021/12/15 13:48:59;;;;;;;47.95;29.83;;;12.10;99.90;;;;;;5085180;28;20577;-78
2021/12/15 13:52:00;;;;;;;49.58;28.00;;;12.10;99.90;;;;;;5082302;28;20388;-78
2021/12/15 13:54:35;;;;;;;42.85;27.95;;;12.20;99.90;;;;;;5051083;28;20039;-76
2021/12/15 13:57:12;;;;;;;42.72;27.58;;;12.20;99.90;;;;;;5084214;28;20024;-77
2021/12/15 14:00:02;;;;;;;45.15;29.88;;;12.20;99.90;;;;;;5081167;28;20029;-78
2021/12/15 14:02:32;;;;;;;50.17;28.80;;;12.10;99.90;;;;;;5081990;28;20450;-80
2021/12/15 14:05:27;;;;;;;48.67;28.85;;;12.10;99.90;;;;;;5082083;28;20046;-78